sensor_id;sensor_type;location;lat;lon;timestamp;P1;durP1;ratioP1;P2;durP2;ratioP2
51981;SDS011;37998;53.416;6.730;2022-12-29T00:02:13;4.93;;;4.53;;
51981;SDS011;37998;53.416;6.730;2022-12-29T00:04:40;5.32;;;4.82;;
51981;SDS011;37998;53.416;6.730;2022-12-29T00:07:06;6.75;;;4.72;;
51981;SDS011;37998;53.416;6.730;2022-12-29T00:09:32;5.20;;;4.70;;
51981;SDS011;37998;53.416;6.730;2022-12-29T00:11:58;5.00;;;4.50;;
51981;SDS011;37998;53.416;6.730;2022-12-29T00:14:24;6.40;;;4.50;;
51981;SDS011;37998;53.416;6.730;2022-12-29T00:17:09;8.05;;;4.90;;
51981;SDS011;37998;53.416;6.730;2022-12-29T00:19:35;5.30;;;4.75;;
51981;SDS011;37998;53.416;6.730;2022-12-29T00:22:19;6.93;;;5.03;;
51981;SDS011;37998;53.416;6.730;2022-12-29T00:25:04;4.85;;;4.32;;
51981;SDS011;37998;53.416;6.730;2022-12-29T00:27:49;4.85;;;4.45;;
51981;SDS011;37998;53.416;6.730;2022-12-29T00:30:33;4.80;;;4.30;;
51981;SDS011;37998;53.416;6.730;2022-12-29T00:33:20;4.70;;;4.30;;
51981;SDS011;37998;53.416;6.730;2022-12-29T00:38:39;4.13;;;3.78;;
51981;SDS011;37998;53.416;6.730;2022-12-29T00:41:28;4.70;;;3.80;;
51981;SDS011;37998;53.416;6.730;2022-12-29T00:44:13;6.47;;;4.03;;
51981;SDS011;37998;53.416;6.730;2022-12-29T00:46:40;4.03;;;3.63;;
51981;SDS011;37998;53.416;6.730;2022-12-29T00:49:07;3.38;;;3.08;;
51981;SDS011;37998;53.416;6.730;2022-12-29T00:51:53;5.22;;;3.53;;
51981;SDS011;37998;53.416;6.730;2022-12-29T00:54:20;3.53;;;3.17;;
51981;SDS011;37998;53.416;6.730;2022-12-29T00:56:47;3.50;;;3.20;;
51981;SDS011;37998;53.416;6.730;2022-12-29T00:59:16;4.22;;;2.97;;
51981;SDS011;37998;53.416;6.730;2022-12-29T01:01:43;3.75;;;3.33;;
51981;SDS011;37998;53.416;6.730;2022-12-29T01:04:09;4.82;;;3.85;;
51981;SDS011;37998;53.416;6.730;2022-12-29T01:06:36;3.78;;;3.47;;
51981;SDS011;37998;53.416;6.730;2022-12-29T01:09:03;4.75;;;3.55;;
51981;SDS011;37998;53.416;6.730;2022-12-29T01:11:48;5.07;;;3.28;;
51981;SDS011;37998;53.416;6.730;2022-12-29T01:14:14;4.18;;;3.78;;
51981;SDS011;37998;53.416;6.730;2022-12-29T01:16:40;5.45;;;3.47;;
51981;SDS011;37998;53.416;6.730;2022-12-29T01:19:06;5.10;;;3.80;;
51981;SDS011;37998;53.416;6.730;2022-12-29T01:21:32;6.63;;;3.30;;
51981;SDS011;37998;53.416;6.730;2022-12-29T01:23:58;5.97;;;4.00;;
51981;SDS011;37998;53.416;6.730;2022-12-29T01:26:24;4.63;;;3.80;;
51981;SDS011;37998;53.416;6.730;2022-12-29T01:28:49;5.53;;;3.90;;
51981;SDS011;37998;53.416;6.730;2022-12-29T01:31:15;5.03;;;3.20;;
51981;SDS011;37998;53.416;6.730;2022-12-29T01:33:42;4.32;;;3.40;;
51981;SDS011;37998;53.416;6.730;2022-12-29T01:36:12;6.30;;;4.00;;
51981;SDS011;37998;53.416;6.730;2022-12-29T01:38:39;4.13;;;3.40;;
51981;SDS011;37998;53.416;6.730;2022-12-29T01:41:06;4.35;;;3.95;;
51981;SDS011;37998;53.416;6.730;2022-12-29T01:46:16;4.72;;;3.65;;
51981;SDS011;37998;53.416;6.730;2022-12-29T01:48:51;6.50;;;4.07;;
51981;SDS011;37998;53.416;6.730;2022-12-29T01:51:24;3.95;;;3.65;;
51981;SDS011;37998;53.416;6.730;2022-12-29T01:53:51;3.95;;;3.65;;
51981;SDS011;37998;53.416;6.730;2022-12-29T01:56:20;4.47;;;4.07;;
51981;SDS011;37998;53.416;6.730;2022-12-29T01:58:47;5.57;;;4.47;;
51981;SDS011;37998;53.416;6.730;2022-12-29T02:01:18;5.78;;;4.00;;
51981;SDS011;37998;53.416;6.730;2022-12-29T02:03:45;5.50;;;4.22;;
51981;SDS011;37998;53.416;6.730;2022-12-29T02:06:28;5.65;;;4.20;;
51981;SDS011;37998;53.416;6.730;2022-12-29T02:08:58;5.03;;;4.20;;
51981;SDS011;37998;53.416;6.730;2022-12-29T02:11:25;4.82;;;4.20;;
51981;SDS011;37998;53.416;6.730;2022-12-29T02:13:52;4.43;;;4.03;;
51981;SDS011;37998;53.416;6.730;2022-12-29T02:27:00;5.25;;;4.32;;
51981;SDS011;37998;53.416;6.730;2022-12-29T02:35:08;6.47;;;5.03;;
51981;SDS011;37998;53.416;6.730;2022-12-29T02:43:13;7.32;;;5.15;;
51981;SDS011;37998;53.416;6.730;2022-12-29T02:45:52;5.50;;;4.80;;
51981;SDS011;37998;53.416;6.730;2022-12-29T02:51:04;8.25;;;5.07;;
51981;SDS011;37998;53.416;6.730;2022-12-29T02:53:37;5.32;;;4.70;;
51981;SDS011;37998;53.416;6.730;2022-12-29T02:56:23;8.00;;;5.30;;
51981;SDS011;37998;53.416;6.730;2022-12-29T02:58:48;3.78;;;3.40;;
51981;SDS011;37998;53.416;6.730;2022-12-29T03:04:12;3.30;;;2.97;;
51981;SDS011;37998;53.416;6.730;2022-12-29T03:07:06;2.97;;;2.72;;
51981;SDS011;37998;53.416;6.730;2022-12-29T03:09:43;4.78;;;3.05;;
51981;SDS011;37998;53.416;6.730;2022-12-29T03:15:23;8.90;;;5.03;;
51981;SDS011;37998;53.416;6.730;2022-12-29T03:18:18;6.25;;;5.65;;
51981;SDS011;37998;53.416;6.730;2022-12-29T03:21:00;5.05;;;3.65;;
51981;SDS011;37998;53.416;6.730;2022-12-29T03:23:34;5.60;;;3.25;;
51981;SDS011;37998;53.416;6.730;2022-12-29T03:26:02;3.35;;;2.75;;
51981;SDS011;37998;53.416;6.730;2022-12-29T03:28:33;6.03;;;3.47;;
51981;SDS011;37998;53.416;6.730;2022-12-29T03:31:03;3.03;;;2.38;;
51981;SDS011;37998;53.416;6.730;2022-12-29T03:33:31;2.60;;;2.40;;
51981;SDS011;37998;53.416;6.730;2022-12-29T03:35:58;3.00;;;2.40;;
51981;SDS011;37998;53.416;6.730;2022-12-29T03:38:35;4.35;;;2.05;;
51981;SDS011;37998;53.416;6.730;2022-12-29T03:41:13;3.47;;;2.05;;
51981;SDS011;37998;53.416;6.730;2022-12-29T03:43:45;3.40;;;2.53;;
51981;SDS011;37998;53.416;6.730;2022-12-29T03:46:11;2.25;;;2.05;;
51981;SDS011;37998;53.416;6.730;2022-12-29T03:48:37;3.20;;;1.85;;
51981;SDS011;37998;53.416;6.730;2022-12-29T03:51:02;3.30;;;1.77;;
51981;SDS011;37998;53.416;6.730;2022-12-29T03:53:28;4.97;;;1.95;;
51981;SDS011;37998;53.416;6.730;2022-12-29T03:55:54;6.13;;;1.85;;
51981;SDS011;37998;53.416;6.730;2022-12-29T03:58:19;6.38;;;1.77;;
51981;SDS011;37998;53.416;6.730;2022-12-29T04:00:45;5.15;;;1.60;;
51981;SDS011;37998;53.416;6.730;2022-12-29T04:03:11;6.82;;;1.90;;
51981;SDS011;37998;53.416;6.730;2022-12-29T04:05:36;7.25;;;2.20;;
51981;SDS011;37998;53.416;6.730;2022-12-29T04:08:02;4.95;;;1.83;;
51981;SDS011;37998;53.416;6.730;2022-12-29T04:10:27;2.95;;;1.70;;
51981;SDS011;37998;53.416;6.730;2022-12-29T04:12:53;8.98;;;2.15;;
51981;SDS011;37998;53.416;6.730;2022-12-29T04:15:19;5.72;;;1.95;;
51981;SDS011;37998;53.416;6.730;2022-12-29T04:17:44;4.47;;;1.88;;
51981;SDS011;37998;53.416;6.730;2022-12-29T04:20:10;4.32;;;1.55;;
51981;SDS011;37998;53.416;6.730;2022-12-29T04:23:01;4.25;;;1.85;;
51981;SDS011;37998;53.416;6.730;2022-12-29T04:27:53;6.43;;;1.70;;
51981;SDS011;37998;53.416;6.730;2022-12-29T04:30:18;5.18;;;2.00;;
51981;SDS011;37998;53.416;6.730;2022-12-29T04:32:44;3.38;;;1.90;;
51981;SDS011;37998;53.416;6.730;2022-12-29T04:35:10;4.53;;;1.60;;
51981;SDS011;37998;53.416;6.730;2022-12-29T04:37:35;5.85;;;1.85;;
51981;SDS011;37998;53.416;6.730;2022-12-29T04:40:01;3.33;;;1.60;;
51981;SDS011;37998;53.416;6.730;2022-12-29T04:42:27;6.65;;;1.80;;
51981;SDS011;37998;53.416;6.730;2022-12-29T04:44:52;3.90;;;1.52;;
51981;SDS011;37998;53.416;6.730;2022-12-29T04:47:18;4.38;;;1.50;;
51981;SDS011;37998;53.416;6.730;2022-12-29T04:49:43;7.68;;;1.70;;
51981;SDS011;37998;53.416;6.730;2022-12-29T04:52:09;6.10;;;1.73;;
51981;SDS011;37998;53.416;6.730;2022-12-29T04:54:35;9.13;;;1.90;;
51981;SDS011;37998;53.416;6.730;2022-12-29T04:57:01;9.70;;;1.85;;
51981;SDS011;37998;53.416;6.730;2022-12-29T04:59:27;6.60;;;1.73;;
51981;SDS011;37998;53.416;6.730;2022-12-29T05:01:52;4.53;;;1.48;;
51981;SDS011;37998;53.416;6.730;2022-12-29T05:04:18;8.10;;;1.90;;
51981;SDS011;37998;53.416;6.730;2022-12-29T05:06:43;9.27;;;2.20;;
51981;SDS011;37998;53.416;6.730;2022-12-29T05:09:09;5.88;;;2.05;;
51981;SDS011;37998;53.416;6.730;2022-12-29T05:11:35;7.43;;;2.20;;
51981;SDS011;37998;53.416;6.730;2022-12-29T05:14:00;8.85;;;1.90;;
51981;SDS011;37998;53.416;6.730;2022-12-29T05:16:26;9.45;;;1.83;;
51981;SDS011;37998;53.416;6.730;2022-12-29T05:18:52;10.75;;;1.98;;
51981;SDS011;37998;53.416;6.730;2022-12-29T05:21:17;5.72;;;1.90;;
51981;SDS011;37998;53.416;6.730;2022-12-29T05:23:43;7.57;;;1.73;;
51981;SDS011;37998;53.416;6.730;2022-12-29T05:26:08;9.18;;;2.05;;
51981;SDS011;37998;53.416;6.730;2022-12-29T05:28:34;12.18;;;2.20;;
51981;SDS011;37998;53.416;6.730;2022-12-29T05:31:00;10.63;;;2.42;;
51981;SDS011;37998;53.416;6.730;2022-12-29T05:33:25;8.18;;;1.65;;
51981;SDS011;37998;53.416;6.730;2022-12-29T05:35:51;8.10;;;2.40;;
51981;SDS011;37998;53.416;6.730;2022-12-29T05:38:16;11.65;;;2.55;;
51981;SDS011;37998;53.416;6.730;2022-12-29T05:40:42;12.68;;;2.40;;
51981;SDS011;37998;53.416;6.730;2022-12-29T05:43:08;8.85;;;2.70;;
51981;SDS011;37998;53.416;6.730;2022-12-29T05:45:35;10.68;;;2.97;;
51981;SDS011;37998;53.416;6.730;2022-12-29T05:48:01;10.52;;;2.70;;
51981;SDS011;37998;53.416;6.730;2022-12-29T05:50:27;12.48;;;2.90;;
51981;SDS011;37998;53.416;6.730;2022-12-29T05:52:53;13.57;;;2.67;;
51981;SDS011;37998;53.416;6.730;2022-12-29T05:55:18;10.57;;;2.33;;
51981;SDS011;37998;53.416;6.730;2022-12-29T05:57:44;11.45;;;2.95;;
51981;SDS011;37998;53.416;6.730;2022-12-29T06:00:10;12.15;;;2.63;;
51981;SDS011;37998;53.416;6.730;2022-12-29T06:02:36;9.60;;;2.30;;
51981;SDS011;37998;53.416;6.730;2022-12-29T06:05:02;10.80;;;2.47;;
51981;SDS011;37998;53.416;6.730;2022-12-29T06:07:27;9.20;;;3.15;;
51981;SDS011;37998;53.416;6.730;2022-12-29T06:09:53;12.55;;;2.83;;
51981;SDS011;37998;53.416;6.730;2022-12-29T06:12:19;12.45;;;2.83;;
51981;SDS011;37998;53.416;6.730;2022-12-29T06:14:44;7.82;;;2.38;;
51981;SDS011;37998;53.416;6.730;2022-12-29T06:17:10;11.13;;;2.50;;
51981;SDS011;37998;53.416;6.730;2022-12-29T06:19:36;9.30;;;2.40;;
51981;SDS011;37998;53.416;6.730;2022-12-29T06:22:01;13.18;;;2.67;;
51981;SDS011;37998;53.416;6.730;2022-12-29T06:24:27;18.80;;;3.42;;
51981;SDS011;37998;53.416;6.730;2022-12-29T06:26:53;9.60;;;2.50;;
51981;SDS011;37998;53.416;6.730;2022-12-29T06:29:19;10.27;;;2.72;;
51981;SDS011;37998;53.416;6.730;2022-12-29T06:31:45;13.15;;;3.15;;
51981;SDS011;37998;53.416;6.730;2022-12-29T06:34:11;14.57;;;2.60;;
51981;SDS011;37998;53.416;6.730;2022-12-29T06:36:38;12.85;;;2.90;;
51981;SDS011;37998;53.416;6.730;2022-12-29T06:39:04;11.85;;;3.53;;
51981;SDS011;37998;53.416;6.730;2022-12-29T06:41:30;10.90;;;3.22;;
51981;SDS011;37998;53.416;6.730;2022-12-29T06:43:55;13.63;;;2.85;;
51981;SDS011;37998;53.416;6.730;2022-12-29T06:46:21;12.18;;;3.00;;
51981;SDS011;37998;53.416;6.730;2022-12-29T06:48:47;10.45;;;2.38;;
51981;SDS011;37998;53.416;6.730;2022-12-29T06:51:12;15.30;;;3.88;;
51981;SDS011;37998;53.416;6.730;2022-12-29T06:53:38;12.63;;;3.00;;
51981;SDS011;37998;53.416;6.730;2022-12-29T06:56:04;18.90;;;3.25;;
51981;SDS011;37998;53.416;6.730;2022-12-29T06:58:29;13.02;;;3.50;;
51981;SDS011;37998;53.416;6.730;2022-12-29T07:00:55;18.83;;;4.38;;
51981;SDS011;37998;53.416;6.730;2022-12-29T07:03:21;15.93;;;3.95;;
51981;SDS011;37998;53.416;6.730;2022-12-29T07:05:46;19.45;;;3.55;;
51981;SDS011;37998;53.416;6.730;2022-12-29T07:08:12;22.17;;;3.75;;
51981;SDS011;37998;53.416;6.730;2022-12-29T07:10:37;22.90;;;3.72;;
51981;SDS011;37998;53.416;6.730;2022-12-29T07:13:03;14.25;;;3.35;;
51981;SDS011;37998;53.416;6.730;2022-12-29T07:15:29;14.85;;;3.47;;
51981;SDS011;37998;53.416;6.730;2022-12-29T07:17:54;17.33;;;3.40;;
51981;SDS011;37998;53.416;6.730;2022-12-29T07:20:20;18.75;;;2.92;;
51981;SDS011;37998;53.416;6.730;2022-12-29T07:22:46;13.48;;;3.42;;
51981;SDS011;37998;53.416;6.730;2022-12-29T07:25:12;12.98;;;3.47;;
51981;SDS011;37998;53.416;6.730;2022-12-29T07:27:38;18.38;;;3.63;;
51981;SDS011;37998;53.416;6.730;2022-12-29T07:30:04;13.07;;;3.30;;
51981;SDS011;37998;53.416;6.730;2022-12-29T07:32:33;10.02;;;2.92;;
51981;SDS011;37998;53.416;6.730;2022-12-29T07:34:59;18.65;;;4.03;;
51981;SDS011;37998;53.416;6.730;2022-12-29T07:37:24;16.90;;;3.55;;
51981;SDS011;37998;53.416;6.730;2022-12-29T07:39:50;13.77;;;3.40;;
51981;SDS011;37998;53.416;6.730;2022-12-29T07:42:16;12.13;;;3.67;;
51981;SDS011;37998;53.416;6.730;2022-12-29T07:44:42;17.70;;;3.10;;
51981;SDS011;37998;53.416;6.730;2022-12-29T07:47:07;17.58;;;4.22;;
51981;SDS011;37998;53.416;6.730;2022-12-29T07:49:33;21.33;;;3.80;;
51981;SDS011;37998;53.416;6.730;2022-12-29T07:51:59;16.27;;;3.80;;
51981;SDS011;37998;53.416;6.730;2022-12-29T07:54:24;19.42;;;3.90;;
51981;SDS011;37998;53.416;6.730;2022-12-29T07:56:50;12.60;;;3.13;;
51981;SDS011;37998;53.416;6.730;2022-12-29T07:59:16;14.57;;;3.28;;
51981;SDS011;37998;53.416;6.730;2022-12-29T08:01:42;17.70;;;3.60;;
51981;SDS011;37998;53.416;6.730;2022-12-29T08:04:08;13.35;;;3.42;;
51981;SDS011;37998;53.416;6.730;2022-12-29T08:06:34;12.75;;;3.17;;
51981;SDS011;37998;53.416;6.730;2022-12-29T08:08:59;17.45;;;2.92;;
51981;SDS011;37998;53.416;6.730;2022-12-29T08:11:26;16.83;;;2.83;;
51981;SDS011;37998;53.416;6.730;2022-12-29T08:13:52;12.07;;;3.30;;
51981;SDS011;37998;53.416;6.730;2022-12-29T08:16:18;12.60;;;3.17;;
51981;SDS011;37998;53.416;6.730;2022-12-29T08:18:43;10.40;;;2.92;;
51981;SDS011;37998;53.416;6.730;2022-12-29T08:21:09;14.82;;;3.00;;
51981;SDS011;37998;53.416;6.730;2022-12-29T08:23:36;15.00;;;3.72;;
51981;SDS011;37998;53.416;6.730;2022-12-29T08:26:03;17.83;;;4.07;;
51981;SDS011;37998;53.416;6.730;2022-12-29T08:28:29;17.98;;;4.25;;
51981;SDS011;37998;53.416;6.730;2022-12-29T08:30:59;15.35;;;3.00;;
51981;SDS011;37998;53.416;6.730;2022-12-29T08:33:26;14.30;;;3.53;;
51981;SDS011;37998;53.416;6.730;2022-12-29T08:35:52;14.23;;;3.75;;
51981;SDS011;37998;53.416;6.730;2022-12-29T08:38:23;17.83;;;3.58;;
51981;SDS011;37998;53.416;6.730;2022-12-29T08:40:48;10.65;;;3.67;;
51981;SDS011;37998;53.416;6.730;2022-12-29T08:43:16;64.05;;;6.40;;
51981;SDS011;37998;53.416;6.730;2022-12-29T08:45:42;21.58;;;5.70;;
51981;SDS011;37998;53.416;6.730;2022-12-29T08:48:07;16.08;;;3.25;;
51981;SDS011;37998;53.416;6.730;2022-12-29T08:50:33;25.15;;;4.22;;
51981;SDS011;37998;53.416;6.730;2022-12-29T08:52:59;18.70;;;4.03;;
51981;SDS011;37998;53.416;6.730;2022-12-29T08:55:24;25.27;;;4.38;;
51981;SDS011;37998;53.416;6.730;2022-12-29T08:57:50;16.92;;;4.30;;
51981;SDS011;37998;53.416;6.730;2022-12-29T09:00:17;22.17;;;4.35;;
51981;SDS011;37998;53.416;6.730;2022-12-29T09:02:43;19.05;;;4.28;;
51981;SDS011;37998;53.416;6.730;2022-12-29T09:05:08;16.45;;;4.20;;
51981;SDS011;37998;53.416;6.730;2022-12-29T09:07:34;18.10;;;3.95;;
51981;SDS011;37998;53.416;6.730;2022-12-29T09:10:00;18.45;;;4.10;;
51981;SDS011;37998;53.416;6.730;2022-12-29T09:12:26;18.90;;;3.90;;
51981;SDS011;37998;53.416;6.730;2022-12-29T09:14:52;15.00;;;3.88;;
51981;SDS011;37998;53.416;6.730;2022-12-29T09:17:18;19.27;;;3.80;;
51981;SDS011;37998;53.416;6.730;2022-12-29T09:20:02;15.15;;;4.15;;
51981;SDS011;37998;53.416;6.730;2022-12-29T09:22:28;18.05;;;4.88;;
51981;SDS011;37998;53.416;6.730;2022-12-29T09:24:54;13.93;;;3.75;;
51981;SDS011;37998;53.416;6.730;2022-12-29T09:27:20;14.20;;;3.50;;
51981;SDS011;37998;53.416;6.730;2022-12-29T09:29:45;26.23;;;4.38;;
51981;SDS011;37998;53.416;6.730;2022-12-29T09:32:11;28.48;;;4.97;;
51981;SDS011;37998;53.416;6.730;2022-12-29T09:34:37;26.08;;;4.40;;
51981;SDS011;37998;53.416;6.730;2022-12-29T09:37:02;19.00;;;4.40;;
51981;SDS011;37998;53.416;6.730;2022-12-29T09:39:28;23.80;;;4.57;;
51981;SDS011;37998;53.416;6.730;2022-12-29T09:44:38;17.55;;;4.53;;
51981;SDS011;37998;53.416;6.730;2022-12-29T09:47:21;20.45;;;4.13;;
51981;SDS011;37998;53.416;6.730;2022-12-29T09:49:49;16.02;;;4.03;;
51981;SDS011;37998;53.416;6.730;2022-12-29T09:52:21;24.92;;;5.13;;
51981;SDS011;37998;53.416;6.730;2022-12-29T09:54:58;17.67;;;4.25;;
51981;SDS011;37998;53.416;6.730;2022-12-29T10:00:23;17.65;;;4.72;;
51981;SDS011;37998;53.416;6.730;2022-12-29T10:05:51;18.92;;;5.22;;
51981;SDS011;37998;53.416;6.730;2022-12-29T10:17:05;18.75;;;4.60;;
51981;SDS011;37998;53.416;6.730;2022-12-29T10:25:26;16.52;;;3.28;;
51981;SDS011;37998;53.416;6.730;2022-12-29T10:27:56;18.80;;;3.25;;
51981;SDS011;37998;53.416;6.730;2022-12-29T10:30:27;12.70;;;3.42;;
51981;SDS011;37998;53.416;6.730;2022-12-29T10:32:57;11.40;;;3.00;;
51981;SDS011;37998;53.416;6.730;2022-12-29T10:35:35;11.55;;;2.97;;
51981;SDS011;37998;53.416;6.730;2022-12-29T10:40:46;11.63;;;2.70;;
51981;SDS011;37998;53.416;6.730;2022-12-29T10:43:27;12.80;;;2.95;;
51981;SDS011;37998;53.416;6.730;2022-12-29T10:45:56;14.68;;;3.13;;
51981;SDS011;37998;53.416;6.730;2022-12-29T10:48:28;17.35;;;3.33;;
51981;SDS011;37998;53.416;6.730;2022-12-29T10:50:59;15.88;;;3.88;;
51981;SDS011;37998;53.416;6.730;2022-12-29T10:53:36;12.18;;;3.25;;
51981;SDS011;37998;53.416;6.730;2022-12-29T10:56:09;15.77;;;3.63;;
51981;SDS011;37998;53.416;6.730;2022-12-29T11:01:16;17.58;;;4.68;;
51981;SDS011;37998;53.416;6.730;2022-12-29T11:06:19;14.63;;;4.93;;
51981;SDS011;37998;53.416;6.730;2022-12-29T11:08:56;17.98;;;4.38;;
51981;SDS011;37998;53.416;6.730;2022-12-29T11:11:27;13.05;;;4.10;;
51981;SDS011;37998;53.416;6.730;2022-12-29T11:14:01;14.63;;;4.03;;
51981;SDS011;37998;53.416;6.730;2022-12-29T11:16:35;19.75;;;4.10;;
51981;SDS011;37998;53.416;6.730;2022-12-29T11:19:01;14.27;;;3.90;;
51981;SDS011;37998;53.416;6.730;2022-12-29T11:21:34;16.77;;;4.05;;
51981;SDS011;37998;53.416;6.730;2022-12-29T11:24:20;25.80;;;5.47;;
51981;SDS011;37998;53.416;6.730;2022-12-29T11:26:52;17.52;;;5.18;;
51981;SDS011;37998;53.416;6.730;2022-12-29T11:31:56;24.85;;;5.47;;
51981;SDS011;37998;53.416;6.730;2022-12-29T11:36:53;30.40;;;7.63;;
51981;SDS011;37998;53.416;6.730;2022-12-29T11:41:56;28.60;;;7.53;;
51981;SDS011;37998;53.416;6.730;2022-12-29T11:44:23;22.77;;;4.80;;
51981;SDS011;37998;53.416;6.730;2022-12-29T11:46:50;26.38;;;6.05;;
51981;SDS011;37998;53.416;6.730;2022-12-29T11:49:20;27.35;;;5.60;;
51981;SDS011;37998;53.416;6.730;2022-12-29T11:51:50;21.55;;;4.97;;
51981;SDS011;37998;53.416;6.730;2022-12-29T11:54:23;20.38;;;5.20;;
51981;SDS011;37998;53.416;6.730;2022-12-29T11:56:52;22.27;;;4.40;;
51981;SDS011;37998;53.416;6.730;2022-12-29T12:01:59;21.95;;;5.63;;
51981;SDS011;37998;53.416;6.730;2022-12-29T12:04:35;17.20;;;3.85;;
51981;SDS011;37998;53.416;6.730;2022-12-29T12:07:05;21.40;;;5.10;;
51981;SDS011;37998;53.416;6.730;2022-12-29T12:09:54;26.70;;;5.80;;
51981;SDS011;37998;53.416;6.730;2022-12-29T12:15:12;19.00;;;4.65;;
51981;SDS011;37998;53.416;6.730;2022-12-29T12:17:47;21.05;;;5.65;;
51981;SDS011;37998;53.416;6.730;2022-12-29T12:20:36;15.20;;;3.90;;
51981;SDS011;37998;53.416;6.730;2022-12-29T12:25:37;16.95;;;4.20;;
51981;SDS011;37998;53.416;6.730;2022-12-29T12:28:26;20.23;;;4.10;;
51981;SDS011;37998;53.416;6.730;2022-12-29T12:31:13;15.48;;;4.25;;
51981;SDS011;37998;53.416;6.730;2022-12-29T12:34:05;10.77;;;2.80;;
51981;SDS011;37998;53.416;6.730;2022-12-29T12:36:58;14.60;;;3.47;;
51981;SDS011;37998;53.416;6.730;2022-12-29T12:45:41;13.80;;;3.30;;
51981;SDS011;37998;53.416;6.730;2022-12-29T12:48:15;19.73;;;3.42;;
51981;SDS011;37998;53.416;6.730;2022-12-29T13:05:31;12.75;;;2.78;;
51981;SDS011;37998;53.416;6.730;2022-12-29T13:14:13;14.20;;;2.70;;
51981;SDS011;37998;53.416;6.730;2022-12-29T13:17:07;11.35;;;2.72;;
51981;SDS011;37998;53.416;6.730;2022-12-29T13:22:25;12.98;;;2.53;;
51981;SDS011;37998;53.416;6.730;2022-12-29T13:28:13;13.98;;;2.92;;
51981;SDS011;37998;53.416;6.730;2022-12-29T13:30:51;12.65;;;2.45;;
51981;SDS011;37998;53.416;6.730;2022-12-29T13:33:31;21.33;;;3.17;;
51981;SDS011;37998;53.416;6.730;2022-12-29T13:38:55;10.00;;;2.97;;
51981;SDS011;37998;53.416;6.730;2022-12-29T13:44:22;13.07;;;2.85;;
51981;SDS011;37998;53.416;6.730;2022-12-29T13:46:52;13.27;;;2.20;;
51981;SDS011;37998;53.416;6.730;2022-12-29T13:49:20;9.60;;;2.78;;
51981;SDS011;37998;53.416;6.730;2022-12-29T13:51:50;12.15;;;2.80;;
51981;SDS011;37998;53.416;6.730;2022-12-29T13:55:07;12.13;;;2.95;;
51981;SDS011;37998;53.416;6.730;2022-12-29T13:57:07;13.10;;;2.67;;
51981;SDS011;37998;53.416;6.730;2022-12-29T13:59:55;10.25;;;2.28;;
51981;SDS011;37998;53.416;6.730;2022-12-29T14:07:57;12.25;;;2.97;;
51981;SDS011;37998;53.416;6.730;2022-12-29T14:10:30;9.05;;;2.72;;
51981;SDS011;37998;53.416;6.730;2022-12-29T14:13:06;11.55;;;2.65;;
51981;SDS011;37998;53.416;6.730;2022-12-29T14:15:38;11.45;;;2.83;;
51981;SDS011;37998;53.416;6.730;2022-12-29T14:20:46;12.77;;;4.03;;
51981;SDS011;37998;53.416;6.730;2022-12-29T14:23:25;12.98;;;2.80;;
51981;SDS011;37998;53.416;6.730;2022-12-29T14:28:46;16.30;;;4.70;;
51981;SDS011;37998;53.416;6.730;2022-12-29T14:33:38;15.00;;;3.30;;
51981;SDS011;37998;53.416;6.730;2022-12-29T14:36:21;11.68;;;3.50;;
51981;SDS011;37998;53.416;6.730;2022-12-29T14:38:50;12.95;;;2.95;;
51981;SDS011;37998;53.416;6.730;2022-12-29T14:44:10;17.23;;;2.90;;
51981;SDS011;37998;53.416;6.730;2022-12-29T14:46:44;11.27;;;2.50;;
51981;SDS011;37998;53.416;6.730;2022-12-29T14:49:18;14.25;;;2.53;;
51981;SDS011;37998;53.416;6.730;2022-12-29T14:51:47;14.25;;;2.63;;
51981;SDS011;37998;53.416;6.730;2022-12-29T14:56:58;11.77;;;2.53;;
51981;SDS011;37998;53.416;6.730;2022-12-29T14:59:32;11.57;;;3.53;;
51981;SDS011;37998;53.416;6.730;2022-12-29T15:02:00;13.20;;;2.83;;
51981;SDS011;37998;53.416;6.730;2022-12-29T15:04:33;11.30;;;2.67;;
51981;SDS011;37998;53.416;6.730;2022-12-29T15:07:00;13.77;;;3.03;;
51981;SDS011;37998;53.416;6.730;2022-12-29T15:14:48;13.02;;;2.75;;
51981;SDS011;37998;53.416;6.730;2022-12-29T15:19:58;17.23;;;2.72;;
51981;SDS011;37998;53.416;6.730;2022-12-29T15:22:45;10.98;;;2.95;;
51981;SDS011;37998;53.416;6.730;2022-12-29T15:25:15;24.63;;;4.30;;
51981;SDS011;37998;53.416;6.730;2022-12-29T15:27:43;13.40;;;3.15;;
51981;SDS011;37998;53.416;6.730;2022-12-29T15:30:17;11.45;;;3.28;;
51981;SDS011;37998;53.416;6.730;2022-12-29T15:32:44;17.45;;;4.15;;
51981;SDS011;37998;53.416;6.730;2022-12-29T15:38:00;17.92;;;4.82;;
51981;SDS011;37998;53.416;6.730;2022-12-29T15:40:37;14.13;;;3.80;;
51981;SDS011;37998;53.416;6.730;2022-12-29T15:43:07;14.25;;;3.83;;
51981;SDS011;37998;53.416;6.730;2022-12-29T15:45:34;16.75;;;3.97;;
51981;SDS011;37998;53.416;6.730;2022-12-29T15:48:00;17.35;;;3.45;;
51981;SDS011;37998;53.416;6.730;2022-12-29T15:50:29;14.60;;;3.55;;
51981;SDS011;37998;53.416;6.730;2022-12-29T15:52:57;17.45;;;3.78;;
51981;SDS011;37998;53.416;6.730;2022-12-29T15:58:00;11.70;;;3.75;;
51981;SDS011;37998;53.416;6.730;2022-12-29T16:00:28;14.38;;;3.03;;
51981;SDS011;37998;53.416;6.730;2022-12-29T16:02:56;16.08;;;3.28;;
51981;SDS011;37998;53.416;6.730;2022-12-29T16:05:31;13.02;;;3.42;;
51981;SDS011;37998;53.416;6.730;2022-12-29T16:07:58;18.75;;;3.70;;
51981;SDS011;37998;53.416;6.730;2022-12-29T16:13:32;18.75;;;3.53;;
51981;SDS011;37998;53.416;6.730;2022-12-29T16:15:55;18.13;;;3.30;;
51981;SDS011;37998;53.416;6.730;2022-12-29T16:18:26;17.80;;;3.78;;
51981;SDS011;37998;53.416;6.730;2022-12-29T16:20:54;15.35;;;5.20;;
51981;SDS011;37998;53.416;6.730;2022-12-29T16:23:25;13.77;;;4.07;;
51981;SDS011;37998;53.416;6.730;2022-12-29T16:25:52;17.40;;;6.53;;
51981;SDS011;37998;53.416;6.730;2022-12-29T16:28:29;20.33;;;4.63;;
51981;SDS011;37998;53.416;6.730;2022-12-29T16:31:05;15.77;;;3.80;;
51981;SDS011;37998;53.416;6.730;2022-12-29T16:36:21;14.93;;;3.13;;
51981;SDS011;37998;53.416;6.730;2022-12-29T16:38:48;15.23;;;3.75;;
51981;SDS011;37998;53.416;6.730;2022-12-29T16:41:35;19.13;;;4.03;;
51981;SDS011;37998;53.416;6.730;2022-12-29T16:46:43;12.02;;;3.05;;
51981;SDS011;37998;53.416;6.730;2022-12-29T16:49:31;13.25;;;3.00;;
51981;SDS011;37998;53.416;6.730;2022-12-29T16:51:59;13.82;;;3.58;;
51981;SDS011;37998;53.416;6.730;2022-12-29T16:54:30;14.98;;;3.10;;
51981;SDS011;37998;53.416;6.730;2022-12-29T16:56:58;10.40;;;2.80;;
51981;SDS011;37998;53.416;6.730;2022-12-29T16:59:26;9.55;;;2.20;;
51981;SDS011;37998;53.416;6.730;2022-12-29T17:01:56;6.68;;;1.73;;
51981;SDS011;37998;53.416;6.730;2022-12-29T17:04:24;5.80;;;1.90;;
51981;SDS011;37998;53.416;6.730;2022-12-29T17:06:49;4.28;;;1.83;;
51981;SDS011;37998;53.416;6.730;2022-12-29T17:09:23;4.78;;;2.20;;
51981;SDS011;37998;53.416;6.730;2022-12-29T17:11:52;5.68;;;2.10;;
51981;SDS011;37998;53.416;6.730;2022-12-29T17:16:52;9.25;;;1.85;;
51981;SDS011;37998;53.416;6.730;2022-12-29T17:19:19;5.15;;;1.80;;
51981;SDS011;37998;53.416;6.730;2022-12-29T17:21:50;10.55;;;2.90;;
51981;SDS011;37998;53.416;6.730;2022-12-29T17:24:16;9.73;;;2.30;;
51981;SDS011;37998;53.416;6.730;2022-12-29T17:26:43;9.65;;;2.70;;
51981;SDS011;37998;53.416;6.730;2022-12-29T17:29:18;10.23;;;2.20;;
51981;SDS011;37998;53.416;6.730;2022-12-29T17:31:51;10.73;;;2.72;;
51981;SDS011;37998;53.416;6.730;2022-12-29T17:34:18;15.80;;;2.70;;
51981;SDS011;37998;53.416;6.730;2022-12-29T17:36:44;7.85;;;2.33;;
51981;SDS011;37998;53.416;6.730;2022-12-29T17:39:10;9.55;;;2.80;;
51981;SDS011;37998;53.416;6.730;2022-12-29T17:41:35;10.40;;;3.10;;
51981;SDS011;37998;53.416;6.730;2022-12-29T17:44:02;8.07;;;2.42;;